sensor_id;sensor_type;location;lat;lon;timestamp;pressure;altitude;pressure_sealevel;temperature;humidity
56681;BME280;42558;52.388;13.390;2022-08-19T00:01:52;100521.17;;;20.36;100.00
56681;BME280;42558;52.388;13.390;2022-08-19T00:04:27;100523.41;;;20.46;100.00
56681;BME280;42558;52.388;13.390;2022-08-19T00:06:55;100515.39;;;20.57;100.00
56681;BME280;42558;52.388;13.390;2022-08-19T00:09:23;100515.27;;;20.50;100.00
56681;BME280;42558;52.388;13.390;2022-08-19T00:11:52;100514.02;;;20.49;100.00
56681;BME280;42558;52.388;13.390;2022-08-19T00:14:19;100504.16;;;20.56;100.00
56681;BME280;42558;52.388;13.390;2022-08-19T00:16:48;100503.02;;;20.70;100.00
56681;BME280;42558;52.388;13.390;2022-08-19T00:19:16;100501.65;;;20.79;100.00
56681;BME280;42558;52.388;13.390;2022-08-19T00:21:43;100503.12;;;20.77;100.00
56681;BME280;42558;52.388;13.390;2022-08-19T00:24:13;100506.44;;;20.69;100.00
56681;BME280;42558;52.388;13.390;2022-08-19T00:26:43;100509.07;;;20.59;100.00
56681;BME280;42558;52.388;13.390;2022-08-19T00:29:13;100501.63;;;20.52;100.00
56681;BME280;42558;52.388;13.390;2022-08-19T00:31:41;100492.25;;;20.49;100.00
56681;BME280;42558;52.388;13.390;2022-08-19T00:34:11;100491.92;;;20.41;100.00
56681;BME280;42558;52.388;13.390;2022-08-19T00:36:40;100488.20;;;20.34;100.00
56681;BME280;42558;52.388;13.390;2022-08-19T00:39:09;100484.52;;;20.32;100.00
56681;BME280;42558;52.388;13.390;2022-08-19T00:41:36;100481.79;;;20.34;100.00
56681;BME280;42558;52.388;13.390;2022-08-19T00:44:26;100468.39;;;20.34;100.00
56681;BME280;42558;52.388;13.390;2022-08-19T00:46:56;100465.75;;;20.33;100.00
56681;BME280;42558;52.388;13.390;2022-08-19T00:49:41;100471.73;;;20.24;100.00
56681;BME280;42558;52.388;13.390;2022-08-19T00:52:20;100476.42;;;20.23;100.00
56681;BME280;42558;52.388;13.390;2022-08-19T00:54:48;100478.40;;;20.22;100.00
56681;BME280;42558;52.388;13.390;2022-08-19T00:57:29;100477.02;;;20.21;100.00
56681;BME280;42558;52.388;13.390;2022-08-19T00:59:59;100470.88;;;20.17;100.00
56681;BME280;42558;52.388;13.390;2022-08-19T01:02:30;100469.05;;;20.12;100.00
56681;BME280;42558;52.388;13.390;2022-08-19T01:05:06;100470.45;;;20.20;100.00
56681;BME280;42558;52.388;13.390;2022-08-19T01:07:37;100459.38;;;20.14;100.00
56681;BME280;42558;52.388;13.390;2022-08-19T01:10:11;100457.50;;;20.17;100.00
56681;BME280;42558;52.388;13.390;2022-08-19T01:12:40;100469.96;;;20.18;100.00
56681;BME280;42558;52.388;13.390;2022-08-19T01:15:11;100493.53;;;20.18;100.00
56681;BME280;42558;52.388;13.390;2022-08-19T01:17:40;100504.16;;;20.15;100.00
56681;BME280;42558;52.388;13.390;2022-08-19T01:20:18;100509.27;;;20.22;100.00
56681;BME280;42558;52.388;13.390;2022-08-19T01:22:53;100501.59;;;20.23;100.00
56681;BME280;42558;52.388;13.390;2022-08-19T01:25:35;100494.77;;;20.18;100.00
56681;BME280;42558;52.388;13.390;2022-08-19T01:28:06;100489.20;;;20.07;100.00
56681;BME280;42558;52.388;13.390;2022-08-19T01:30:37;100479.36;;;20.02;100.00
56681;BME280;42558;52.388;13.390;2022-08-19T01:33:10;100481.20;;;20.01;100.00
56681;BME280;42558;52.388;13.390;2022-08-19T01:35:37;100469.67;;;19.92;100.00
56681;BME280;42558;52.388;13.390;2022-08-19T01:38:09;100474.00;;;19.84;100.00
56681;BME280;42558;52.388;13.390;2022-08-19T01:40:39;100484.63;;;19.81;100.00
56681;BME280;42558;52.388;13.390;2022-08-19T01:43:06;100474.11;;;19.80;100.00
56681;BME280;42558;52.388;13.390;2022-08-19T01:45:34;100471.33;;;19.78;100.00
56681;BME280;42558;52.388;13.390;2022-08-19T01:48:02;100477.30;;;19.75;100.00
56681;BME280;42558;52.388;13.390;2022-08-19T01:50:31;100474.48;;;19.74;100.00
56681;BME280;42558;52.388;13.390;2022-08-19T01:53:02;100497.11;;;19.75;100.00
56681;BME280;42558;52.388;13.390;2022-08-19T01:55:37;100510.95;;;19.77;100.00
56681;BME280;42558;52.388;13.390;2022-08-19T01:58:18;100509.95;;;19.75;100.00
56681;BME280;42558;52.388;13.390;2022-08-19T02:00:47;100498.98;;;19.78;100.00
56681;BME280;42558;52.388;13.390;2022-08-19T02:03:15;100487.98;;;19.76;100.00
56681;BME280;42558;52.388;13.390;2022-08-19T02:05:44;100476.77;;;19.75;100.00
56681;BME280;42558;52.388;13.390;2022-08-19T02:08:12;100454.48;;;19.68;100.00
56681;BME280;42558;52.388;13.390;2022-08-19T02:10:42;100440.85;;;19.58;100.00
56681;BME280;42558;52.388;13.390;2022-08-19T02:13:12;100434.11;;;19.56;100.00
56681;BME280;42558;52.388;13.390;2022-08-19T02:15:40;100428.41;;;19.56;100.00
56681;BME280;42558;52.388;13.390;2022-08-19T02:18:07;100421.20;;;19.52;100.00
56681;BME280;42558;52.388;13.390;2022-08-19T02:20:36;100419.65;;;19.50;100.00
56681;BME280;42558;52.388;13.390;2022-08-19T02:23:04;100413.87;;;19.53;100.00
56681;BME280;42558;52.388;13.390;2022-08-19T02:25:39;100403.63;;;19.56;100.00
56681;BME280;42558;52.388;13.390;2022-08-19T02:28:07;100394.96;;;19.54;100.00
56681;BME280;42558;52.388;13.390;2022-08-19T02:30:34;100387.88;;;19.58;100.00
56681;BME280;42558;52.388;13.390;2022-08-19T02:33:01;100380.67;;;19.54;100.00
56681;BME280;42558;52.388;13.390;2022-08-19T02:35:28;100382.56;;;19.56;100.00
56681;BME280;42558;52.388;13.390;2022-08-19T02:37:55;100378.69;;;19.55;100.00
56681;BME280;42558;52.388;13.390;2022-08-19T02:40:46;100377.75;;;19.50;100.00
56681;BME280;42558;52.388;13.390;2022-08-19T02:43:16;100384.73;;;19.49;100.00
56681;BME280;42558;52.388;13.390;2022-08-19T02:45:43;100392.19;;;19.50;100.00
56681;BME280;42558;52.388;13.390;2022-08-19T02:48:09;100395.50;;;19.53;100.00
56681;BME280;42558;52.388;13.390;2022-08-19T02:50:50;100399.13;;;19.51;100.00
56681;BME280;42558;52.388;13.390;2022-08-19T02:53:26;100405.77;;;19.56;100.00
56681;BME280;42558;52.388;13.390;2022-08-19T02:55:55;100415.09;;;19.54;100.00
56681;BME280;42558;52.388;13.390;2022-08-19T02:58:23;100409.98;;;19.52;100.00
56681;BME280;42558;52.388;13.390;2022-08-19T03:00:55;100411.55;;;19.53;100.00
56681;BME280;42558;52.388;13.390;2022-08-19T03:03:22;100408.81;;;19.55;100.00
56681;BME280;42558;52.388;13.390;2022-08-19T03:05:50;100401.33;;;19.55;100.00
56681;BME280;42558;52.388;13.390;2022-08-19T03:08:24;100407.35;;;19.57;100.00
56681;BME280;42558;52.388;13.390;2022-08-19T03:10:52;100407.77;;;19.55;100.00
56681;BME280;42558;52.388;13.390;2022-08-19T03:13:21;100410.35;;;19.51;100.00
56681;BME280;42558;52.388;13.390;2022-08-19T03:15:48;100405.48;;;19.54;100.00
56681;BME280;42558;52.388;13.390;2022-08-19T03:18:16;100407.69;;;19.58;100.00
56681;BME280;42558;52.388;13.390;2022-08-19T03:20:48;100404.84;;;19.57;100.00
56681;BME280;42558;52.388;13.390;2022-08-19T03:23:16;100404.26;;;19.53;100.00
56681;BME280;42558;52.388;13.390;2022-08-19T03:25:47;100402.64;;;19.48;100.00
56681;BME280;42558;52.388;13.390;2022-08-19T03:28:34;100404.71;;;19.43;100.00
56681;BME280;42558;52.388;13.390;2022-08-19T03:31:07;100409.34;;;19.43;100.00
56681;BME280;42558;52.388;13.390;2022-08-19T03:33:55;100399.48;;;19.45;100.00
56681;BME280;42558;52.388;13.390;2022-08-19T03:36:26;100392.08;;;19.48;100.00
56681;BME280;42558;52.388;13.390;2022-08-19T03:38:59;100389.54;;;19.44;100.00
56681;BME280;42558;52.388;13.390;2022-08-19T03:41:37;100385.59;;;19.44;100.00
56681;BME280;42558;52.388;13.390;2022-08-19T03:44:20;100384.20;;;19.43;100.00
56681;BME280;42558;52.388;13.390;2022-08-19T03:46:53;100389.64;;;19.40;100.00
56681;BME280;42558;52.388;13.390;2022-08-19T03:49:25;100395.42;;;19.44;100.00
56681;BME280;42558;52.388;13.390;2022-08-19T03:51:57;100392.32;;;19.46;100.00
56681;BME280;42558;52.388;13.390;2022-08-19T03:54:25;100380.99;;;19.43;100.00
56681;BME280;42558;52.388;13.390;2022-08-19T03:56:55;100384.29;;;19.41;100.00
56681;BME280;42558;52.388;13.390;2022-08-19T03:59:28;100386.90;;;19.36;100.00
56681;BME280;42558;52.388;13.390;2022-08-19T04:01:59;100392.09;;;19.36;100.00
56681;BME280;42558;52.388;13.390;2022-08-19T04:04:27;100398.13;;;19.36;100.00
56681;BME280;42558;52.388;13.390;2022-08-19T04:06:58;100403.63;;;19.37;100.00
56681;BME280;42558;52.388;13.390;2022-08-19T04:09:25;100406.10;;;19.38;100.00
56681;BME280;42558;52.388;13.390;2022-08-19T04:11:56;100419.86;;;19.37;100.00
56681;BME280;42558;52.388;13.390;2022-08-19T04:14:28;100420.48;;;19.34;100.00
56681;BME280;42558;52.388;13.390;2022-08-19T04:17:00;100414.55;;;19.36;100.00
56681;BME280;42558;52.388;13.390;2022-08-19T04:19:30;100413.25;;;19.37;100.00
56681;BME280;42558;52.388;13.390;2022-08-19T04:21:57;100413.27;;;19.36;100.00
56681;BME280;42558;52.388;13.390;2022-08-19T04:24:25;100423.84;;;19.42;100.00
56681;BME280;42558;52.388;13.390;2022-08-19T04:26:52;100432.02;;;19.42;100.00
56681;BME280;42558;52.388;13.390;2022-08-19T04:29:24;100428.77;;;19.43;100.00
56681;BME280;42558;52.388;13.390;2022-08-19T04:31:55;100431.14;;;19.48;100.00
56681;BME280;42558;52.388;13.390;2022-08-19T04:34:26;100423.23;;;19.50;100.00
56681;BME280;42558;52.388;13.390;2022-08-19T04:36:56;100417.70;;;19.50;100.00
56681;BME280;42558;52.388;13.390;2022-08-19T04:39:29;100411.92;;;19.53;100.00
56681;BME280;42558;52.388;13.390;2022-08-19T04:42:18;100406.46;;;19.57;100.00
56681;BME280;42558;52.388;13.390;2022-08-19T04:45:10;100409.30;;;19.58;100.00
56681;BME280;42558;52.388;13.390;2022-08-19T04:47:39;100416.76;;;19.59;100.00
56681;BME280;42558;52.388;13.390;2022-08-19T04:50:25;100416.52;;;19.62;100.00
56681;BME280;42558;52.388;13.390;2022-08-19T04:52:52;100412.52;;;19.70;100.00
56681;BME280;42558;52.388;13.390;2022-08-19T04:55:19;100416.04;;;19.77;100.00
56681;BME280;42558;52.388;13.390;2022-08-19T04:57:46;100413.23;;;19.82;100.00
56681;BME280;42558;52.388;13.390;2022-08-19T05:00:14;100411.45;;;19.81;100.00
56681;BME280;42558;52.388;13.390;2022-08-19T05:02:42;100404.20;;;19.86;100.00
56681;BME280;42558;52.388;13.390;2022-08-19T05:05:09;100399.77;;;19.91;100.00
56681;BME280;42558;52.388;13.390;2022-08-19T05:07:36;100394.86;;;19.94;100.00
56681;BME280;42558;52.388;13.390;2022-08-19T05:10:05;100396.80;;;19.94;100.00
56681;BME280;42558;52.388;13.390;2022-08-19T05:12:33;100390.01;;;19.95;100.00
56681;BME280;42558;52.388;13.390;2022-08-19T05:15:02;100390.38;;;20.06;100.00
56681;BME280;42558;52.388;13.390;2022-08-19T05:17:29;100381.83;;;20.05;100.00
56681;BME280;42558;52.388;13.390;2022-08-19T05:20:06;100385.39;;;20.11;100.00
56681;BME280;42558;52.388;13.390;2022-08-19T05:22:53;100377.58;;;20.21;100.00
56681;BME280;42558;52.388;13.390;2022-08-19T05:25:21;100379.05;;;20.30;100.00
56681;BME280;42558;52.388;13.390;2022-08-19T05:27:49;100383.50;;;20.42;100.00
56681;BME280;42558;52.388;13.390;2022-08-19T05:30:16;100382.40;;;20.43;100.00
56681;BME280;42558;52.388;13.390;2022-08-19T05:32:44;100386.00;;;20.48;100.00
56681;BME280;42558;52.388;13.390;2022-08-19T05:35:11;100388.41;;;20.51;100.00
56681;BME280;42558;52.388;13.390;2022-08-19T05:37:39;100389.48;;;20.39;100.00
56681;BME280;42558;52.388;13.390;2022-08-19T05:40:09;100382.90;;;20.27;100.00
56681;BME280;42558;52.388;13.390;2022-08-19T05:42:37;100386.52;;;20.31;100.00
56681;BME280;42558;52.388;13.390;2022-08-19T05:45:06;100390.48;;;20.41;100.00
56681;BME280;42558;52.388;13.390;2022-08-19T05:47:33;100396.03;;;20.35;100.00
56681;BME280;42558;52.388;13.390;2022-08-19T05:50:07;100399.77;;;20.40;100.00
56681;BME280;42558;52.388;13.390;2022-08-19T05:52:37;100399.55;;;20.43;100.00
56681;BME280;42558;52.388;13.390;2022-08-19T05:55:09;100401.65;;;20.44;100.00
56681;BME280;42558;52.388;13.390;2022-08-19T05:57:36;100410.74;;;20.51;100.00
56681;BME280;42558;52.388;13.390;2022-08-19T06:00:06;100415.95;;;20.50;100.00
56681;BME280;42558;52.388;13.390;2022-08-19T06:02:36;100419.04;;;20.49;100.00
56681;BME280;42558;52.388;13.390;2022-08-19T06:05:06;100416.86;;;20.43;100.00
56681;BME280;42558;52.388;13.390;2022-08-19T06:07:38;100416.73;;;20.41;100.00
56681;BME280;42558;52.388;13.390;2022-08-19T06:10:09;100414.38;;;20.42;100.00
56681;BME280;42558;52.388;13.390;2022-08-19T06:12:37;100407.33;;;20.52;100.00
56681;BME280;42558;52.388;13.390;2022-08-19T06:15:11;100395.58;;;20.50;100.00
56681;BME280;42558;52.388;13.390;2022-08-19T06:17:39;100397.13;;;20.52;100.00
56681;BME280;42558;52.388;13.390;2022-08-19T06:20:10;100406.52;;;20.54;100.00
56681;BME280;42558;52.388;13.390;2022-08-19T06:22:45;100404.49;;;20.56;100.00
56681;BME280;42558;52.388;13.390;2022-08-19T06:25:14;100404.48;;;20.67;100.00
56681;BME280;42558;52.388;13.390;2022-08-19T06:27:42;100408.46;;;20.71;100.00
56681;BME280;42558;52.388;13.390;2022-08-19T06:30:29;100412.27;;;20.74;100.00
56681;BME280;42558;52.388;13.390;2022-08-19T06:32:56;100415.91;;;20.83;100.00
56681;BME280;42558;52.388;13.390;2022-08-19T06:35:23;100426.40;;;20.90;100.00
56681;BME280;42558;52.388;13.390;2022-08-19T06:37:50;100434.03;;;20.96;100.00
56681;BME280;42558;52.388;13.390;2022-08-19T06:40:17;100442.70;;;20.88;100.00
56681;BME280;42558;52.388;13.390;2022-08-19T06:42:44;100447.67;;;20.95;100.00
56681;BME280;42558;52.388;13.390;2022-08-19T06:45:22;100457.81;;;21.01;100.00
56681;BME280;42558;52.388;13.390;2022-08-19T06:48:00;100461.60;;;21.01;100.00
56681;BME280;42558;52.388;13.390;2022-08-19T06:50:27;100460.00;;;21.05;100.00
56681;BME280;42558;52.388;13.390;2022-08-19T06:52:54;100456.33;;;21.14;100.00
56681;BME280;42558;52.388;13.390;2022-08-19T06:55:21;100457.70;;;21.20;100.00
56681;BME280;42558;52.388;13.390;2022-08-19T06:57:49;100453.05;;;21.25;100.00
56681;BME280;42558;52.388;13.390;2022-08-19T07:00:20;100451.80;;;21.25;100.00
56681;BME280;42558;52.388;13.390;2022-08-19T07:02:47;100447.52;;;21.36;100.00
56681;BME280;42558;52.388;13.390;2022-08-19T07:05:22;100445.04;;;21.35;100.00
56681;BME280;42558;52.388;13.390;2022-08-19T07:07:49;100437.23;;;21.48;100.00
56681;BME280;42558;52.388;13.390;2022-08-19T07:10:17;100433.08;;;21.54;100.00
56681;BME280;42558;52.388;13.390;2022-08-19T07:12:45;100434.60;;;21.56;100.00
56681;BME280;42558;52.388;13.390;2022-08-19T07:15:12;100438.97;;;21.55;100.00
56681;BME280;42558;52.388;13.390;2022-08-19T07:17:39;100450.14;;;21.43;100.00
56681;BME280;42558;52.388;13.390;2022-08-19T07:20:09;100458.98;;;21.50;100.00
56681;BME280;42558;52.388;13.390;2022-08-19T07:22:39;100465.53;;;21.67;100.00
56681;BME280;42558;52.388;13.390;2022-08-19T07:25:09;100465.61;;;21.69;100.00
56681;BME280;42558;52.388;13.390;2022-08-19T07:27:36;100468.61;;;21.75;100.00
56681;BME280;42558;52.388;13.390;2022-08-19T07:30:08;100472.59;;;21.79;100.00
56681;BME280;42558;52.388;13.390;2022-08-19T07:32:40;100475.29;;;21.74;100.00
56681;BME280;42558;52.388;13.390;2022-08-19T07:35:07;100475.04;;;21.85;100.00
56681;BME280;42558;52.388;13.390;2022-08-19T07:37:36;100468.82;;;21.93;99.97
56681;BME280;42558;52.388;13.390;2022-08-19T07:40:06;100471.70;;;21.98;99.94
56681;BME280;42558;52.388;13.390;2022-08-19T07:42:34;100472.54;;;22.04;99.81
56681;BME280;42558;52.388;13.390;2022-08-19T07:45:01;100471.95;;;22.05;99.58
56681;BME280;42558;52.388;13.390;2022-08-19T07:47:28;100480.08;;;22.14;99.55
56681;BME280;42558;52.388;13.390;2022-08-19T07:50:15;100482.86;;;22.01;98.31
56681;BME280;42558;52.388;13.390;2022-08-19T07:52:43;100483.29;;;22.03;98.49
56681;BME280;42558;52.388;13.390;2022-08-19T07:55:17;100486.30;;;22.05;99.28
56681;BME280;42558;52.388;13.390;2022-08-19T07:58:04;100493.58;;;22.12;98.44
56681;BME280;42558;52.388;13.390;2022-08-19T08:00:32;100492.77;;;22.28;98.60
56681;BME280;42558;52.388;13.390;2022-08-19T08:02:59;100502.41;;;22.34;96.82
56681;BME280;42558;52.388;13.390;2022-08-19T08:05:25;100503.84;;;22.33;96.63
56681;BME280;42558;52.388;13.390;2022-08-19T08:08:12;100508.27;;;22.30;97.62
56681;BME280;42558;52.388;13.390;2022-08-19T08:10:59;100511.07;;;22.23;96.87
56681;BME280;42558;52.388;13.390;2022-08-19T08:13:27;100518.73;;;22.19;97.56
56681;BME280;42558;52.388;13.390;2022-08-19T08:15:56;100523.80;;;22.22;97.63
56681;BME280;42558;52.388;13.390;2022-08-19T08:18:24;100523.55;;;22.20;97.20
56681;BME280;42558;52.388;13.390;2022-08-19T08:20:55;100524.79;;;22.20;97.43
56681;BME280;42558;52.388;13.390;2022-08-19T08:23:24;100522.27;;;22.25;97.06
56681;BME280;42558;52.388;13.390;2022-08-19T08:25:55;100522.30;;;22.24;98.07
56681;BME280;42558;52.388;13.390;2022-08-19T08:28:25;100521.91;;;22.30;98.47
56681;BME280;42558;52.388;13.390;2022-08-19T08:30:57;100522.27;;;22.29;97.59
56681;BME280;42558;52.388;13.390;2022-08-19T08:33:27;100522.50;;;22.37;97.20
56681;BME280;42558;52.388;13.390;2022-08-19T08:36:07;100518.94;;;22.32;96.39
56681;BME280;42558;52.388;13.390;2022-08-19T08:38:36;100522.76;;;22.40;96.17
56681;BME280;42558;52.388;13.390;2022-08-19T08:44:17;100520.89;;;22.37;96.23
56681;BME280;42558;52.388;13.390;2022-08-19T08:46:59;100530.92;;;22.46;96.47
56681;BME280;42558;52.388;13.390;2022-08-19T08:49:45;100531.09;;;22.42;97.04
56681;BME280;42558;52.388;13.390;2022-08-19T08:52:33;100531.59;;;22.43;98.07
56681;BME280;42558;52.388;13.390;2022-08-19T08:55:11;100526.42;;;22.37;98.44
56681;BME280;42558;52.388;13.390;2022-08-19T08:57:57;100528.48;;;22.36;99.16
56681;BME280;42558;52.388;13.390;2022-08-19T09:00:37;100526.74;;;22.30;98.91
56681;BME280;42558;52.388;13.390;2022-08-19T09:03:19;100533.30;;;22.27;99.02
56681;BME280;42558;52.388;13.390;2022-08-19T09:11:55;100533.60;;;22.42;99.04
56681;BME280;42558;52.388;13.390;2022-08-19T09:17:24;100532.98;;;22.26;98.86
56681;BME280;42558;52.388;13.390;2022-08-19T09:20:23;100529.98;;;22.20;99.00
56681;BME280;42558;52.388;13.390;2022-08-19T09:22:52;100524.52;;;22.18;99.94
56681;BME280;42558;52.388;13.390;2022-08-19T09:25:22;100518.27;;;22.13;99.57
56681;BME280;42558;52.388;13.390;2022-08-19T09:27:55;100520.56;;;22.09;99.56
56681;BME280;42558;52.388;13.390;2022-08-19T09:30:48;100517.52;;;22.22;99.87
56681;BME280;42558;52.388;13.390;2022-08-19T09:33:18;100518.25;;;22.27;98.70
56681;BME280;42558;52.388;13.390;2022-08-19T09:35:46;100514.55;;;22.39;98.31
56681;BME280;42558;52.388;13.390;2022-08-19T09:38:20;100513.51;;;22.47;97.87
56681;BME280;42558;52.388;13.390;2022-08-19T09:40:48;100516.79;;;22.55;97.22
56681;BME280;42558;52.388;13.390;2022-08-19T09:43:17;100516.63;;;22.54;96.35
56681;BME280;42558;52.388;13.390;2022-08-19T09:46:01;100516.27;;;22.32;96.99
56681;BME280;42558;52.388;13.390;2022-08-19T09:48:28;100519.02;;;22.35;98.06
56681;BME280;42558;52.388;13.390;2022-08-19T09:50:54;100516.05;;;22.60;98.67
56681;BME280;42558;52.388;13.390;2022-08-19T09:53:21;100517.81;;;22.83;97.88
56681;BME280;42558;52.388;13.390;2022-08-19T09:55:52;100514.37;;;22.66;95.37
56681;BME280;42558;52.388;13.390;2022-08-19T09:58:21;100513.66;;;22.48;95.74
56681;BME280;42558;52.388;13.390;2022-08-19T10:00:52;100514.53;;;22.49;96.30
56681;BME280;42558;52.388;13.390;2022-08-19T10:03:20;100513.13;;;22.48;96.45
56681;BME280;42558;52.388;13.390;2022-08-19T10:05:58;100511.73;;;22.51;96.63
56681;BME280;42558;52.388;13.390;2022-08-19T10:08:30;100514.97;;;22.47;96.86
56681;BME280;42558;52.388;13.390;2022-08-19T10:10:57;100510.98;;;22.48;97.14
56681;BME280;42558;52.388;13.390;2022-08-19T10:13:45;100510.73;;;22.45;97.58
56681;BME280;42558;52.388;13.390;2022-08-19T10:16:16;100503.70;;;22.60;97.00
56681;BME280;42558;52.388;13.390;2022-08-19T10:18:46;100504.86;;;22.71;95.93
56681;BME280;42558;52.388;13.390;2022-08-19T10:21:28;100507.98;;;22.69;95.60
56681;BME280;42558;52.388;13.390;2022-08-19T10:24:03;100512.91;;;22.67;95.65
56681;BME280;42558;52.388;13.390;2022-08-19T10:26:37;100519.38;;;22.48;96.42
56681;BME280;42558;52.388;13.390;2022-08-19T10:29:08;100525.61;;;22.22;96.44
56681;BME280;42558;52.388;13.390;2022-08-19T10:31:36;100524.18;;;22.02;97.73
56681;BME280;42558;52.388;13.390;2022-08-19T10:34:24;100520.90;;;22.03;98.63
56681;BME280;42558;52.388;13.390;2022-08-19T10:36:55;100518.61;;;22.08;98.53
56681;BME280;42558;52.388;13.390;2022-08-19T10:39:30;100517.95;;;22.06;98.61
56681;BME280;42558;52.388;13.390;2022-08-19T10:42:10;100516.30;;;22.02;98.23
56681;BME280;42558;52.388;13.390;2022-08-19T10:44:41;100516.58;;;22.04;98.63
56681;BME280;42558;52.388;13.390;2022-08-19T10:47:10;100516.48;;;22.13;98.71
56681;BME280;42558;52.388;13.390;2022-08-19T10:49:52;100517.65;;;22.10;98.10
56681;BME280;42558;52.388;13.390;2022-08-19T10:52:44;100517.65;;;22.04;98.92
56681;BME280;42558;52.388;13.390;2022-08-19T10:55:21;100516.33;;;22.11;99.00
56681;BME280;42558;52.388;13.390;2022-08-19T10:58:25;100520.70;;;22.24;98.10
56681;BME280;42558;52.388;13.390;2022-08-19T11:00:58;100523.63;;;22.22;97.68
56681;BME280;42558;52.388;13.390;2022-08-19T11:03:26;100527.06;;;22.12;97.65
56681;BME280;42558;52.388;13.390;2022-08-19T11:06:08;100535.08;;;22.08;97.89
56681;BME280;42558;52.388;13.390;2022-08-19T11:08:36;100533.23;;;22.10;97.85
56681;BME280;42558;52.388;13.390;2022-08-19T11:11:06;100529.34;;;22.03;97.66
56681;BME280;42558;52.388;13.390;2022-08-19T11:13:37;100532.41;;;22.02;97.89
56681;BME280;42558;52.388;13.390;2022-08-19T11:16:09;100528.66;;;21.97;97.96
56681;BME280;42558;52.388;13.390;2022-08-19T11:18:42;100535.79;;;21.93;98.54
56681;BME280;42558;52.388;13.390;2022-08-19T11:21:19;100534.92;;;21.97;98.78
56681;BME280;42558;52.388;13.390;2022-08-19T11:23:50;100534.08;;;22.00;98.83
56681;BME280;42558;52.388;13.390;2022-08-19T11:26:20;100533.98;;;21.98;98.68
56681;BME280;42558;52.388;13.390;2022-08-19T11:28:48;100538.48;;;21.93;98.47
56681;BME280;42558;52.388;13.390;2022-08-19T11:31:22;100532.88;;;22.04;98.47
56681;BME280;42558;52.388;13.390;2022-08-19T11:34:00;100530.62;;;22.07;97.97
56681;BME280;42558;52.388;13.390;2022-08-19T11:36:30;100530.36;;;22.10;98.44
56681;BME280;42558;52.388;13.390;2022-08-19T11:38:59;100532.98;;;22.12;97.21
56681;BME280;42558;52.388;13.390;2022-08-19T11:41:27;100532.21;;;22.13;97.23
56681;BME280;42558;52.388;13.390;2022-08-19T11:43:54;100538.02;;;22.16;97.12
56681;BME280;42558;52.388;13.390;2022-08-19T11:46:25;100541.81;;;22.10;97.14
56681;BME280;42558;52.388;13.390;2022-08-19T11:48:52;100548.46;;;22.14;97.30
56681;BME280;42558;52.388;13.390;2022-08-19T11:51:23;100551.98;;;22.16;96.69
56681;BME280;42558;52.388;13.390;2022-08-19T11:53:53;100560.27;;;22.19;96.62
56681;BME280;42558;52.388;13.390;2022-08-19T11:56:22;100561.48;;;22.16;96.68
56681;BME280;42558;52.388;13.390;2022-08-19T11:58:52;100560.20;;;22.12;96.52
56681;BME280;42558;52.388;13.390;2022-08-19T12:01:22;100559.91;;;22.14;97.20
56681;BME280;42558;52.388;13.390;2022-08-19T12:03:53;100561.56;;;22.18;97.19
56681;BME280;42558;52.388;13.390;2022-08-19T12:06:29;100558.13;;;22.29;97.32
56681;BME280;42558;52.388;13.390;2022-08-19T12:09:03;100559.30;;;22.26;96.44
56681;BME280;42558;52.388;13.390;2022-08-19T12:11:31;100560.31;;;22.28;96.26
56681;BME280;42558;52.388;13.390;2022-08-19T12:14:00;100564.47;;;22.26;96.01
56681;BME280;42558;52.388;13.390;2022-08-19T12:16:29;100566.50;;;22.30;95.97
56681;BME280;42558;52.388;13.390;2022-08-19T12:18:59;100568.84;;;22.34;95.64
56681;BME280;42558;52.388;13.390;2022-08-19T12:21:34;100570.39;;;22.41;94.92
56681;BME280;42558;52.388;13.390;2022-08-19T12:24:03;100568.41;;;22.41;94.73
56681;BME280;42558;52.388;13.390;2022-08-19T12:26:32;100569.82;;;22.46;94.65
56681;BME280;42558;52.388;13.390;2022-08-19T12:29:03;100571.23;;;22.60;94.14
56681;BME280;42558;52.388;13.390;2022-08-19T12:31:30;100573.94;;;22.65;93.28
56681;BME280;42558;52.388;13.390;2022-08-19T12:33:58;100580.95;;;22.55;93.69
56681;BME280;42558;52.388;13.390;2022-08-19T12:36:25;100580.81;;;22.49;93.64
56681;BME280;42558;52.388;13.390;2022-08-19T12:38:52;100576.35;;;22.49;93.87
56681;BME280;42558;52.388;13.390;2022-08-19T12:41:20;100576.10;;;22.46;93.12
56681;BME280;42558;52.388;13.390;2022-08-19T12:43:49;100570.80;;;22.43;93.70
56681;BME280;42558;52.388;13.390;2022-08-19T12:46:19;100570.02;;;22.59;93.82
56681;BME280;42558;52.388;13.390;2022-08-19T12:48:50;100569.48;;;22.77;94.06
56681;BME280;42558;52.388;13.390;2022-08-19T12:51:20;100566.35;;;22.66;92.65
56681;BME280;42558;52.388;13.390;2022-08-19T12:53:48;100560.91;;;22.68;91.93
56681;BME280;42558;52.388;13.390;2022-08-19T12:56:16;100562.98;;;22.65;92.36
56681;BME280;42558;52.388;13.390;2022-08-19T12:58:49;100571.22;;;22.79;92.56
56681;BME280;42558;52.388;13.390;2022-08-19T13:01:19;100578.48;;;22.67;91.75
56681;BME280;42558;52.388;13.390;2022-08-19T13:03:49;100585.94;;;22.70;92.50
56681;BME280;42558;52.388;13.390;2022-08-19T13:06:18;100592.46;;;22.72;91.92
56681;BME280;42558;52.388;13.390;2022-08-19T13:08:46;100592.95;;;22.69;92.18